sensor_id;sensor_type;location;lat;lon;timestamp;temperature;humidity
31695;DHT22;18289;51.330;4.946;2022-08-19T00:01:48;19.40;99.90
31695;DHT22;18289;51.330;4.946;2022-08-19T00:04:16;19.20;99.90
31695;DHT22;18289;51.330;4.946;2022-08-19T00:06:44;19.10;99.90
31695;DHT22;18289;51.330;4.946;2022-08-19T00:09:13;19.10;99.90
31695;DHT22;18289;51.330;4.946;2022-08-19T00:11:40;19.10;99.90
31695;DHT22;18289;51.330;4.946;2022-08-19T00:14:09;19.00;99.90
31695;DHT22;18289;51.330;4.946;2022-08-19T00:16:36;18.90;99.90
31695;DHT22;18289;51.330;4.946;2022-08-19T00:19:02;18.90;99.90
31695;DHT22;18289;51.330;4.946;2022-08-19T00:21:28;18.90;99.90
31695;DHT22;18289;51.330;4.946;2022-08-19T00:23:55;19.00;99.90
31695;DHT22;18289;51.330;4.946;2022-08-19T00:26:28;18.90;99.90
31695;DHT22;18289;51.330;4.946;2022-08-19T00:28:54;19.00;99.90
31695;DHT22;18289;51.330;4.946;2022-08-19T00:31:21;18.90;99.90
31695;DHT22;18289;51.330;4.946;2022-08-19T00:33:47;18.90;99.90
31695;DHT22;18289;51.330;4.946;2022-08-19T00:36:16;18.80;99.90
31695;DHT22;18289;51.330;4.946;2022-08-19T00:38:42;18.70;99.90
31695;DHT22;18289;51.330;4.946;2022-08-19T00:41:12;18.80;99.90
31695;DHT22;18289;51.330;4.946;2022-08-19T00:43:40;18.70;99.90
31695;DHT22;18289;51.330;4.946;2022-08-19T00:46:07;18.70;99.90
31695;DHT22;18289;51.330;4.946;2022-08-19T00:48:33;18.70;99.90
31695;DHT22;18289;51.330;4.946;2022-08-19T00:51:01;18.70;99.90
31695;DHT22;18289;51.330;4.946;2022-08-19T00:53:31;18.80;99.90
31695;DHT22;18289;51.330;4.946;2022-08-19T00:56:01;18.80;99.90
31695;DHT22;18289;51.330;4.946;2022-08-19T00:58:31;18.70;99.90
31695;DHT22;18289;51.330;4.946;2022-08-19T01:00:58;18.70;99.90
31695;DHT22;18289;51.330;4.946;2022-08-19T01:03:23;18.70;99.90
31695;DHT22;18289;51.330;4.946;2022-08-19T01:05:50;18.60;99.90
31695;DHT22;18289;51.330;4.946;2022-08-19T01:08:18;18.60;99.90
31695;DHT22;18289;51.330;4.946;2022-08-19T01:10:54;18.60;99.90
31695;DHT22;18289;51.330;4.946;2022-08-19T01:13:24;18.60;99.90
31695;DHT22;18289;51.330;4.946;2022-08-19T01:15:57;18.70;99.90
31695;DHT22;18289;51.330;4.946;2022-08-19T01:18:24;18.60;99.90
31695;DHT22;18289;51.330;4.946;2022-08-19T01:20:51;18.60;99.90
31695;DHT22;18289;51.330;4.946;2022-08-19T01:23:17;18.60;99.90
31695;DHT22;18289;51.330;4.946;2022-08-19T01:25:47;18.70;99.90
31695;DHT22;18289;51.330;4.946;2022-08-19T01:28:23;18.60;99.90
31695;DHT22;18289;51.330;4.946;2022-08-19T01:30:52;18.60;99.90
31695;DHT22;18289;51.330;4.946;2022-08-19T01:33:19;18.40;99.90
31695;DHT22;18289;51.330;4.946;2022-08-19T01:35:45;18.50;99.90
31695;DHT22;18289;51.330;4.946;2022-08-19T01:38:23;18.50;99.90
31695;DHT22;18289;51.330;4.946;2022-08-19T01:40:49;18.40;99.90
31695;DHT22;18289;51.330;4.946;2022-08-19T01:43:15;18.40;99.90
31695;DHT22;18289;51.330;4.946;2022-08-19T01:45:41;18.50;99.90
31695;DHT22;18289;51.330;4.946;2022-08-19T01:48:07;18.50;99.90
31695;DHT22;18289;51.330;4.946;2022-08-19T01:50:34;18.40;99.90
31695;DHT22;18289;51.330;4.946;2022-08-19T01:53:01;18.40;99.90
31695;DHT22;18289;51.330;4.946;2022-08-19T01:55:27;18.40;99.90
31695;DHT22;18289;51.330;4.946;2022-08-19T01:57:56;18.30;99.90
31695;DHT22;18289;51.330;4.946;2022-08-19T02:00:25;18.40;99.90
31695;DHT22;18289;51.330;4.946;2022-08-19T02:02:51;18.30;99.90
31695;DHT22;18289;51.330;4.946;2022-08-19T02:05:17;18.30;99.90
31695;DHT22;18289;51.330;4.946;2022-08-19T02:07:43;18.30;99.90
31695;DHT22;18289;51.330;4.946;2022-08-19T02:10:13;18.30;99.90
31695;DHT22;18289;51.330;4.946;2022-08-19T02:12:40;18.20;99.90
31695;DHT22;18289;51.330;4.946;2022-08-19T02:15:06;18.30;99.90
31695;DHT22;18289;51.330;4.946;2022-08-19T02:17:33;18.30;99.90
31695;DHT22;18289;51.330;4.946;2022-08-19T02:19:59;18.30;99.90
31695;DHT22;18289;51.330;4.946;2022-08-19T02:22:25;18.30;99.90
31695;DHT22;18289;51.330;4.946;2022-08-19T02:24:52;18.30;99.90
31695;DHT22;18289;51.330;4.946;2022-08-19T02:27:18;18.30;99.90
31695;DHT22;18289;51.330;4.946;2022-08-19T02:29:46;18.30;99.90
31695;DHT22;18289;51.330;4.946;2022-08-19T02:32:12;18.30;99.90
31695;DHT22;18289;51.330;4.946;2022-08-19T02:34:39;18.20;99.90
31695;DHT22;18289;51.330;4.946;2022-08-19T02:37:04;18.30;99.90
31695;DHT22;18289;51.330;4.946;2022-08-19T02:39:30;18.20;99.90
31695;DHT22;18289;51.330;4.946;2022-08-19T02:41:56;18.30;99.90
31695;DHT22;18289;51.330;4.946;2022-08-19T02:44:23;18.30;99.90
31695;DHT22;18289;51.330;4.946;2022-08-19T02:46:48;18.20;99.90
31695;DHT22;18289;51.330;4.946;2022-08-19T02:49:15;18.10;99.90
31695;DHT22;18289;51.330;4.946;2022-08-19T02:51:43;18.20;99.90
31695;DHT22;18289;51.330;4.946;2022-08-19T02:54:10;18.20;99.90
31695;DHT22;18289;51.330;4.946;2022-08-19T02:56:38;18.20;99.90
31695;DHT22;18289;51.330;4.946;2022-08-19T02:59:06;18.10;99.90
31695;DHT22;18289;51.330;4.946;2022-08-19T03:01:36;18.10;99.90
31695;DHT22;18289;51.330;4.946;2022-08-19T03:04:07;18.20;99.90
31695;DHT22;18289;51.330;4.946;2022-08-19T03:06:36;18.20;99.90
31695;DHT22;18289;51.330;4.946;2022-08-19T03:09:02;18.20;99.90
31695;DHT22;18289;51.330;4.946;2022-08-19T03:11:30;18.20;99.90
31695;DHT22;18289;51.330;4.946;2022-08-19T03:13:57;18.10;99.90
31695;DHT22;18289;51.330;4.946;2022-08-19T03:16:26;18.10;99.90
31695;DHT22;18289;51.330;4.946;2022-08-19T03:18:53;18.10;99.90
31695;DHT22;18289;51.330;4.946;2022-08-19T03:21:22;18.10;99.90
31695;DHT22;18289;51.330;4.946;2022-08-19T03:23:49;18.00;99.90
31695;DHT22;18289;51.330;4.946;2022-08-19T03:26:15;18.10;99.90
31695;DHT22;18289;51.330;4.946;2022-08-19T03:28:42;18.10;99.90
31695;DHT22;18289;51.330;4.946;2022-08-19T03:31:11;18.10;99.90
31695;DHT22;18289;51.330;4.946;2022-08-19T03:33:38;18.00;99.90
31695;DHT22;18289;51.330;4.946;2022-08-19T03:38:44;18.00;99.90
31695;DHT22;18289;51.330;4.946;2022-08-19T03:41:16;17.90;99.90
31695;DHT22;18289;51.330;4.946;2022-08-19T03:43:43;17.80;99.90
31695;DHT22;18289;51.330;4.946;2022-08-19T03:46:14;17.90;99.90
31695;DHT22;18289;51.330;4.946;2022-08-19T03:48:42;17.90;99.90
31695;DHT22;18289;51.330;4.946;2022-08-19T03:51:16;17.90;99.90
31695;DHT22;18289;51.330;4.946;2022-08-19T03:53:42;17.90;99.90
31695;DHT22;18289;51.330;4.946;2022-08-19T03:56:09;17.80;99.90
31695;DHT22;18289;51.330;4.946;2022-08-19T03:58:35;17.80;99.90
31695;DHT22;18289;51.330;4.946;2022-08-19T04:01:08;17.80;99.90
31695;DHT22;18289;51.330;4.946;2022-08-19T04:03:35;17.80;99.90
31695;DHT22;18289;51.330;4.946;2022-08-19T04:06:24;17.70;99.90
31695;DHT22;18289;51.330;4.946;2022-08-19T04:08:52;17.70;99.90
31695;DHT22;18289;51.330;4.946;2022-08-19T04:11:21;17.70;99.90
31695;DHT22;18289;51.330;4.946;2022-08-19T04:13:48;17.60;99.90
31695;DHT22;18289;51.330;4.946;2022-08-19T04:16:14;17.60;99.90
31695;DHT22;18289;51.330;4.946;2022-08-19T04:18:41;17.70;99.90
31695;DHT22;18289;51.330;4.946;2022-08-19T04:21:14;17.60;99.90
31695;DHT22;18289;51.330;4.946;2022-08-19T04:23:41;17.60;99.90
31695;DHT22;18289;51.330;4.946;2022-08-19T04:26:11;17.60;99.90
31695;DHT22;18289;51.330;4.946;2022-08-19T04:28:37;17.50;99.90
31695;DHT22;18289;51.330;4.946;2022-08-19T04:31:03;17.50;99.90
31695;DHT22;18289;51.330;4.946;2022-08-19T04:33:29;17.50;99.90
31695;DHT22;18289;51.330;4.946;2022-08-19T04:35:55;17.50;99.90
31695;DHT22;18289;51.330;4.946;2022-08-19T04:38:23;17.40;99.90
31695;DHT22;18289;51.330;4.946;2022-08-19T04:40:50;17.40;99.90
31695;DHT22;18289;51.330;4.946;2022-08-19T04:43:37;17.40;99.90
31695;DHT22;18289;51.330;4.946;2022-08-19T04:46:10;17.40;99.90
31695;DHT22;18289;51.330;4.946;2022-08-19T04:48:38;17.40;99.90
31695;DHT22;18289;51.330;4.946;2022-08-19T04:51:08;17.40;99.90
31695;DHT22;18289;51.330;4.946;2022-08-19T04:53:35;17.40;99.90
31695;DHT22;18289;51.330;4.946;2022-08-19T04:56:06;17.40;99.90
31695;DHT22;18289;51.330;4.946;2022-08-19T04:58:33;17.40;99.90
31695;DHT22;18289;51.330;4.946;2022-08-19T05:00:59;17.40;99.90
31695;DHT22;18289;51.330;4.946;2022-08-19T05:03:26;17.30;99.90
31695;DHT22;18289;51.330;4.946;2022-08-19T05:05:52;17.30;99.90
31695;DHT22;18289;51.330;4.946;2022-08-19T05:08:20;17.30;99.90
31695;DHT22;18289;51.330;4.946;2022-08-19T05:10:49;17.30;99.90
31695;DHT22;18289;51.330;4.946;2022-08-19T05:13:15;17.10;99.90
31695;DHT22;18289;51.330;4.946;2022-08-19T05:15:43;17.30;99.90
31695;DHT22;18289;51.330;4.946;2022-08-19T05:18:09;17.30;99.90
31695;DHT22;18289;51.330;4.946;2022-08-19T05:20:53;17.30;99.90
31695;DHT22;18289;51.330;4.946;2022-08-19T05:23:38;17.30;99.90
31695;DHT22;18289;51.330;4.946;2022-08-19T05:26:04;17.30;99.90
31695;DHT22;18289;51.330;4.946;2022-08-19T05:28:30;17.30;99.90
31695;DHT22;18289;51.330;4.946;2022-08-19T05:30:56;17.30;99.90
31695;DHT22;18289;51.330;4.946;2022-08-19T05:33:22;17.40;99.90
31695;DHT22;18289;51.330;4.946;2022-08-19T05:35:50;17.50;99.90
31695;DHT22;18289;51.330;4.946;2022-08-19T05:38:18;17.40;99.90
31695;DHT22;18289;51.330;4.946;2022-08-19T05:40:45;17.30;99.90
31695;DHT22;18289;51.330;4.946;2022-08-19T05:43:13;17.60;99.90
31695;DHT22;18289;51.330;4.946;2022-08-19T05:45:41;17.60;99.90
31695;DHT22;18289;51.330;4.946;2022-08-19T05:48:09;17.70;99.90
31695;DHT22;18289;51.330;4.946;2022-08-19T05:50:38;17.70;99.90
31695;DHT22;18289;51.330;4.946;2022-08-19T05:53:04;17.80;99.90
31695;DHT22;18289;51.330;4.946;2022-08-19T05:55:31;17.80;99.90
31695;DHT22;18289;51.330;4.946;2022-08-19T05:57:57;17.80;99.90
31695;DHT22;18289;51.330;4.946;2022-08-19T06:00:23;17.90;99.90
31695;DHT22;18289;51.330;4.946;2022-08-19T06:02:49;17.90;99.90
31695;DHT22;18289;51.330;4.946;2022-08-19T06:05:16;18.00;99.90
31695;DHT22;18289;51.330;4.946;2022-08-19T06:07:42;18.00;99.90
31695;DHT22;18289;51.330;4.946;2022-08-19T06:10:10;17.90;99.90
31695;DHT22;18289;51.330;4.946;2022-08-19T06:12:36;18.10;99.90
31695;DHT22;18289;51.330;4.946;2022-08-19T06:15:13;18.20;99.90
31695;DHT22;18289;51.330;4.946;2022-08-19T06:17:39;18.30;99.90
31695;DHT22;18289;51.330;4.946;2022-08-19T06:20:07;18.20;99.90
31695;DHT22;18289;51.330;4.946;2022-08-19T06:22:41;18.20;99.90
31695;DHT22;18289;51.330;4.946;2022-08-19T06:25:07;18.30;99.90
31695;DHT22;18289;51.330;4.946;2022-08-19T06:27:34;18.30;99.90
31695;DHT22;18289;51.330;4.946;2022-08-19T06:30:01;18.50;99.90
31695;DHT22;18289;51.330;4.946;2022-08-19T06:32:27;18.60;99.90
31695;DHT22;18289;51.330;4.946;2022-08-19T06:34:54;18.60;99.90
31695;DHT22;18289;51.330;4.946;2022-08-19T06:37:20;18.60;99.90
31695;DHT22;18289;51.330;4.946;2022-08-19T06:39:47;18.60;99.90
31695;DHT22;18289;51.330;4.946;2022-08-19T06:42:13;18.60;99.90
31695;DHT22;18289;51.330;4.946;2022-08-19T06:44:42;18.70;99.90
31695;DHT22;18289;51.330;4.946;2022-08-19T06:47:11;18.70;99.90
31695;DHT22;18289;51.330;4.946;2022-08-19T06:49:38;18.90;99.90
31695;DHT22;18289;51.330;4.946;2022-08-19T06:52:04;18.90;99.90
31695;DHT22;18289;51.330;4.946;2022-08-19T06:54:30;19.00;99.90
31695;DHT22;18289;51.330;4.946;2022-08-19T06:56:58;19.10;99.90
31695;DHT22;18289;51.330;4.946;2022-08-19T06:59:27;19.30;99.90
31695;DHT22;18289;51.330;4.946;2022-08-19T07:01:55;19.40;99.90
31695;DHT22;18289;51.330;4.946;2022-08-19T07:04:24;19.60;99.90
31695;DHT22;18289;51.330;4.946;2022-08-19T07:07:00;19.70;99.90
31695;DHT22;18289;51.330;4.946;2022-08-19T07:09:27;19.80;99.90
31695;DHT22;18289;51.330;4.946;2022-08-19T07:11:54;19.60;99.90
31695;DHT22;18289;51.330;4.946;2022-08-19T07:14:24;19.70;99.90
31695;DHT22;18289;51.330;4.946;2022-08-19T07:16:52;19.80;99.90
31695;DHT22;18289;51.330;4.946;2022-08-19T07:19:20;19.80;99.90
31695;DHT22;18289;51.330;4.946;2022-08-19T07:21:48;19.80;99.90
31695;DHT22;18289;51.330;4.946;2022-08-19T07:24:16;19.80;99.90
31695;DHT22;18289;51.330;4.946;2022-08-19T07:26:43;20.00;99.90
31695;DHT22;18289;51.330;4.946;2022-08-19T07:29:10;20.00;99.90
31695;DHT22;18289;51.330;4.946;2022-08-19T07:31:36;20.00;99.90
31695;DHT22;18289;51.330;4.946;2022-08-19T07:34:07;20.00;99.90
31695;DHT22;18289;51.330;4.946;2022-08-19T07:36:37;20.20;99.90
31695;DHT22;18289;51.330;4.946;2022-08-19T07:39:09;20.30;99.90
31695;DHT22;18289;51.330;4.946;2022-08-19T07:41:36;20.30;99.90
31695;DHT22;18289;51.330;4.946;2022-08-19T07:44:03;20.30;99.90
31695;DHT22;18289;51.330;4.946;2022-08-19T07:46:32;20.40;99.90
31695;DHT22;18289;51.330;4.946;2022-08-19T07:48:58;20.40;99.90
31695;DHT22;18289;51.330;4.946;2022-08-19T07:51:26;20.40;99.90
31695;DHT22;18289;51.330;4.946;2022-08-19T07:53:52;20.60;99.90
31695;DHT22;18289;51.330;4.946;2022-08-19T07:56:19;20.70;99.90
31695;DHT22;18289;51.330;4.946;2022-08-19T07:58:47;20.90;99.90
31695;DHT22;18289;51.330;4.946;2022-08-19T08:01:16;21.10;99.90
31695;DHT22;18289;51.330;4.946;2022-08-19T08:03:43;21.10;99.90
31695;DHT22;18289;51.330;4.946;2022-08-19T08:06:27;21.10;99.90
31695;DHT22;18289;51.330;4.946;2022-08-19T08:09:12;21.30;99.90
31695;DHT22;18289;51.330;4.946;2022-08-19T08:11:59;21.30;99.90
31695;DHT22;18289;51.330;4.946;2022-08-19T08:14:29;21.30;99.90
31695;DHT22;18289;51.330;4.946;2022-08-19T08:16:56;21.20;99.90
31695;DHT22;18289;51.330;4.946;2022-08-19T08:19:23;21.10;99.90
31695;DHT22;18289;51.330;4.946;2022-08-19T08:21:50;21.20;99.90
31695;DHT22;18289;51.330;4.946;2022-08-19T08:24:17;21.40;99.90
31695;DHT22;18289;51.330;4.946;2022-08-19T08:26:43;21.50;99.90
31695;DHT22;18289;51.330;4.946;2022-08-19T08:29:10;21.70;99.90
31695;DHT22;18289;51.330;4.946;2022-08-19T08:31:39;21.70;99.90
31695;DHT22;18289;51.330;4.946;2022-08-19T08:34:05;21.90;99.90
31695;DHT22;18289;51.330;4.946;2022-08-19T08:36:31;21.90;99.90
31695;DHT22;18289;51.330;4.946;2022-08-19T08:38:59;22.20;99.90
31695;DHT22;18289;51.330;4.946;2022-08-19T08:41:53;22.40;99.90
31695;DHT22;18289;51.330;4.946;2022-08-19T08:44:42;22.60;99.90
31695;DHT22;18289;51.330;4.946;2022-08-19T08:47:15;22.40;99.90
31695;DHT22;18289;51.330;4.946;2022-08-19T08:50:05;22.40;99.90
31695;DHT22;18289;51.330;4.946;2022-08-19T08:52:39;22.20;99.90
31695;DHT22;18289;51.330;4.946;2022-08-19T08:55:16;22.00;99.90
31695;DHT22;18289;51.330;4.946;2022-08-19T08:57:52;22.10;99.90
31695;DHT22;18289;51.330;4.946;2022-08-19T09:00:36;22.10;99.90
31695;DHT22;18289;51.330;4.946;2022-08-19T09:03:03;22.20;99.90
31695;DHT22;18289;51.330;4.946;2022-08-19T09:05:47;22.00;99.90
31695;DHT22;18289;51.330;4.946;2022-08-19T09:11:06;21.90;99.90
31695;DHT22;18289;51.330;4.946;2022-08-19T09:14:03;21.90;99.90
31695;DHT22;18289;51.330;4.946;2022-08-19T09:16:31;21.90;99.90
31695;DHT22;18289;51.330;4.946;2022-08-19T09:19:01;21.90;99.90
31695;DHT22;18289;51.330;4.946;2022-08-19T09:21:28;22.00;99.90
31695;DHT22;18289;51.330;4.946;2022-08-19T09:23:54;21.90;99.90
31695;DHT22;18289;51.330;4.946;2022-08-19T09:26:22;22.00;99.90
31695;DHT22;18289;51.330;4.946;2022-08-19T09:28:50;22.00;99.90
31695;DHT22;18289;51.330;4.946;2022-08-19T09:31:27;22.10;99.90
31695;DHT22;18289;51.330;4.946;2022-08-19T09:33:54;22.20;99.90
31695;DHT22;18289;51.330;4.946;2022-08-19T09:36:24;22.50;99.90
31695;DHT22;18289;51.330;4.946;2022-08-19T09:38:51;22.70;99.90
31695;DHT22;18289;51.330;4.946;2022-08-19T09:41:22;23.00;99.90
31695;DHT22;18289;51.330;4.946;2022-08-19T09:43:51;23.00;99.90
31695;DHT22;18289;51.330;4.946;2022-08-19T09:46:26;22.90;99.90
31695;DHT22;18289;51.330;4.946;2022-08-19T09:48:53;23.00;99.90
31695;DHT22;18289;51.330;4.946;2022-08-19T09:51:22;23.00;99.90
31695;DHT22;18289;51.330;4.946;2022-08-19T09:53:49;22.90;99.90
31695;DHT22;18289;51.330;4.946;2022-08-19T09:56:17;22.90;99.90
31695;DHT22;18289;51.330;4.946;2022-08-19T09:58:43;22.90;99.90
31695;DHT22;18289;51.330;4.946;2022-08-19T10:01:11;22.80;99.90
31695;DHT22;18289;51.330;4.946;2022-08-19T10:03:40;22.90;99.90
31695;DHT22;18289;51.330;4.946;2022-08-19T10:06:06;23.00;99.90
31695;DHT22;18289;51.330;4.946;2022-08-19T10:08:34;23.20;99.90
31695;DHT22;18289;51.330;4.946;2022-08-19T10:11:01;23.30;99.90
31695;DHT22;18289;51.330;4.946;2022-08-19T10:13:28;23.40;99.90
31695;DHT22;18289;51.330;4.946;2022-08-19T10:15:56;23.50;99.90
31695;DHT22;18289;51.330;4.946;2022-08-19T10:18:23;23.40;99.90
31695;DHT22;18289;51.330;4.946;2022-08-19T10:20:50;23.20;99.90
31695;DHT22;18289;51.330;4.946;2022-08-19T10:23:18;23.10;99.90
31695;DHT22;18289;51.330;4.946;2022-08-19T10:25:45;23.00;99.90
31695;DHT22;18289;51.330;4.946;2022-08-19T10:28:10;22.90;99.90
31695;DHT22;18289;51.330;4.946;2022-08-19T10:30:38;22.70;99.90
31695;DHT22;18289;51.330;4.946;2022-08-19T10:33:05;22.70;99.90
31695;DHT22;18289;51.330;4.946;2022-08-19T10:35:32;22.60;99.90
31695;DHT22;18289;51.330;4.946;2022-08-19T10:37:58;22.60;99.90
31695;DHT22;18289;51.330;4.946;2022-08-19T10:40:25;22.70;99.90
31695;DHT22;18289;51.330;4.946;2022-08-19T10:42:51;22.70;99.90
31695;DHT22;18289;51.330;4.946;2022-08-19T10:45:17;22.60;99.90
31695;DHT22;18289;51.330;4.946;2022-08-19T10:47:43;22.50;99.90
31695;DHT22;18289;51.330;4.946;2022-08-19T10:50:09;22.40;99.90
31695;DHT22;18289;51.330;4.946;2022-08-19T10:52:54;22.50;99.90
31695;DHT22;18289;51.330;4.946;2022-08-19T10:55:23;22.30;99.90
31695;DHT22;18289;51.330;4.946;2022-08-19T10:58:16;22.30;99.90
31695;DHT22;18289;51.330;4.946;2022-08-19T11:00:43;22.50;99.90
31695;DHT22;18289;51.330;4.946;2022-08-19T11:03:15;22.60;99.90
31695;DHT22;18289;51.330;4.946;2022-08-19T11:05:41;22.60;99.90
31695;DHT22;18289;51.330;4.946;2022-08-19T11:08:08;22.80;99.90
31695;DHT22;18289;51.330;4.946;2022-08-19T11:10:40;22.80;99.90
31695;DHT22;18289;51.330;4.946;2022-08-19T11:13:06;22.90;99.90
31695;DHT22;18289;51.330;4.946;2022-08-19T11:15:32;23.00;99.90
31695;DHT22;18289;51.330;4.946;2022-08-19T11:17:58;23.00;99.90
31695;DHT22;18289;51.330;4.946;2022-08-19T11:20:24;23.20;99.90
31695;DHT22;18289;51.330;4.946;2022-08-19T11:22:52;23.40;99.90
31695;DHT22;18289;51.330;4.946;2022-08-19T11:25:19;23.30;99.90
31695;DHT22;18289;51.330;4.946;2022-08-19T11:27:44;23.30;99.90
31695;DHT22;18289;51.330;4.946;2022-08-19T11:30:13;23.30;99.90
31695;DHT22;18289;51.330;4.946;2022-08-19T11:32:40;23.00;99.90
31695;DHT22;18289;51.330;4.946;2022-08-19T11:35:07;23.00;99.90
31695;DHT22;18289;51.330;4.946;2022-08-19T11:37:32;22.90;99.90
31695;DHT22;18289;51.330;4.946;2022-08-19T11:40:03;22.90;99.90
31695;DHT22;18289;51.330;4.946;2022-08-19T11:42:29;22.90;99.90
31695;DHT22;18289;51.330;4.946;2022-08-19T11:45:13;22.80;99.90
31695;DHT22;18289;51.330;4.946;2022-08-19T11:47:39;22.70;99.90
31695;DHT22;18289;51.330;4.946;2022-08-19T11:50:05;22.70;99.90
31695;DHT22;18289;51.330;4.946;2022-08-19T11:52:31;22.70;99.90
31695;DHT22;18289;51.330;4.946;2022-08-19T11:54:57;22.60;99.90
31695;DHT22;18289;51.330;4.946;2022-08-19T11:57:22;22.80;99.90
31695;DHT22;18289;51.330;4.946;2022-08-19T11:59:52;23.00;99.90
31695;DHT22;18289;51.330;4.946;2022-08-19T12:02:18;23.40;99.90
31695;DHT22;18289;51.330;4.946;2022-08-19T12:04:44;24.00;99.90
31695;DHT22;18289;51.330;4.946;2022-08-19T12:07:10;24.40;99.90
31695;DHT22;18289;51.330;4.946;2022-08-19T12:09:35;24.70;99.90
31695;DHT22;18289;51.330;4.946;2022-08-19T12:12:01;24.70;99.90
31695;DHT22;18289;51.330;4.946;2022-08-19T12:14:28;24.90;99.90
31695;DHT22;18289;51.330;4.946;2022-08-19T12:16:56;25.00;99.90
31695;DHT22;18289;51.330;4.946;2022-08-19T12:19:21;24.90;99.90
31695;DHT22;18289;51.330;4.946;2022-08-19T12:21:47;24.90;99.90
31695;DHT22;18289;51.330;4.946;2022-08-19T12:24:13;24.80;99.90
31695;DHT22;18289;51.330;4.946;2022-08-19T12:26:39;24.70;99.90
31695;DHT22;18289;51.330;4.946;2022-08-19T12:29:05;24.50;99.90
31695;DHT22;18289;51.330;4.946;2022-08-19T12:31:31;24.60;99.90
31695;DHT22;18289;51.330;4.946;2022-08-19T12:33:57;24.70;99.90
31695;DHT22;18289;51.330;4.946;2022-08-19T12:36:24;24.90;99.90
31695;DHT22;18289;51.330;4.946;2022-08-19T12:38:51;25.10;99.90
31695;DHT22;18289;51.330;4.946;2022-08-19T12:41:18;25.40;99.90
31695;DHT22;18289;51.330;4.946;2022-08-19T12:43:47;25.50;99.90
31695;DHT22;18289;51.330;4.946;2022-08-19T12:46:14;25.70;99.90
31695;DHT22;18289;51.330;4.946;2022-08-19T12:48:40;25.70;99.90
31695;DHT22;18289;51.330;4.946;2022-08-19T12:51:08;25.90;99.90
31695;DHT22;18289;51.330;4.946;2022-08-19T12:53:34;26.00;99.90
31695;DHT22;18289;51.330;4.946;2022-08-19T12:56:01;26.40;99.90
31695;DHT22;18289;51.330;4.946;2022-08-19T12:58:28;26.60;99.90
31695;DHT22;18289;51.330;4.946;2022-08-19T13:00:54;26.90;99.90
31695;DHT22;18289;51.330;4.946;2022-08-19T13:03:21;26.90;99.90
31695;DHT22;18289;51.330;4.946;2022-08-19T13:05:50;27.10;99.90
31695;DHT22;18289;51.330;4.946;2022-08-19T13:08:16;27.90;99.90
31695;DHT22;18289;51.330;4.946;2022-08-19T13:10:42;28.70;99.90
31695;DHT22;18289;51.330;4.946;2022-08-19T13:13:09;29.10;99.90
31695;DHT22;18289;51.330;4.946;2022-08-19T13:15:40;28.90;99.90
31695;DHT22;18289;51.330;4.946;2022-08-19T13:18:07;29.40;99.90
31695;DHT22;18289;51.330;4.946;2022-08-19T13:20:36;29.60;99.90
31695;DHT22;18289;51.330;4.946;2022-08-19T13:23:02;29.60;99.90
31695;DHT22;18289;51.330;4.946;2022-08-19T13:25:27;30.30;99.90
31695;DHT22;18289;51.330;4.946;2022-08-19T13:27:53;31.00;99.90
31695;DHT22;18289;51.330;4.946;2022-08-19T13:30:21;32.00;99.90
31695;DHT22;18289;51.330;4.946;2022-08-19T13:33:06;32.30;99.90
31695;DHT22;18289;51.330;4.946;2022-08-19T13:35:51;32.60;99.90
31695;DHT22;18289;51.330;4.946;2022-08-19T13:38:21;31.80;99.90
31695;DHT22;18289;51.330;4.946;2022-08-19T13:40:48;31.50;99.90
31695;DHT22;18289;51.330;4.946;2022-08-19T13:43:16;31.10;99.90
31695;DHT22;18289;51.330;4.946;2022-08-19T13:45:43;30.30;99.90
31695;DHT22;18289;51.330;4.946;2022-08-19T13:48:09;30.20;99.90
31695;DHT22;18289;51.330;4.946;2022-08-19T13:50:40;31.20;99.90
31695;DHT22;18289;51.330;4.946;2022-08-19T13:53:08;30.80;99.90
31695;DHT22;18289;51.330;4.946;2022-08-19T13:55:34;30.30;99.90
31695;DHT22;18289;51.330;4.946;2022-08-19T13:58:01;29.80;99.90
31695;DHT22;18289;51.330;4.946;2022-08-19T14:00:33;29.50;99.90
31695;DHT22;18289;51.330;4.946;2022-08-19T14:02:59;29.40;99.90
31695;DHT22;18289;51.330;4.946;2022-08-19T14:05:27;29.10;99.90
31695;DHT22;18289;51.330;4.946;2022-08-19T14:07:53;28.90;99.90
31695;DHT22;18289;51.330;4.946;2022-08-19T14:10:20;28.50;99.90
31695;DHT22;18289;51.330;4.946;2022-08-19T14:12:46;28.40;99.90
31695;DHT22;18289;51.330;4.946;2022-08-19T14:15:13;28.50;99.90
31695;DHT22;18289;51.330;4.946;2022-08-19T14:17:40;28.80;99.90
31695;DHT22;18289;51.330;4.946;2022-08-19T14:20:09;29.30;99.90
31695;DHT22;18289;51.330;4.946;2022-08-19T14:22:37;29.40;99.90
31695;DHT22;18289;51.330;4.946;2022-08-19T14:25:08;29.50;99.90
31695;DHT22;18289;51.330;4.946;2022-08-19T14:27:36;29.50;99.90
31695;DHT22;18289;51.330;4.946;2022-08-19T14:30:04;29.40;99.90
31695;DHT22;18289;51.330;4.946;2022-08-19T14:32:29;29.60;99.90
31695;DHT22;18289;51.330;4.946;2022-08-19T14:34:55;29.50;99.90
31695;DHT22;18289;51.330;4.946;2022-08-19T14:37:21;29.00;99.90
31695;DHT22;18289;51.330;4.946;2022-08-19T14:39:49;28.50;99.90
31695;DHT22;18289;51.330;4.946;2022-08-19T14:42:14;28.10;99.90
31695;DHT22;18289;51.330;4.946;2022-08-19T14:44:41;27.70;99.90
31695;DHT22;18289;51.330;4.946;2022-08-19T14:47:07;27.50;99.90
31695;DHT22;18289;51.330;4.946;2022-08-19T14:49:33;27.30;99.90
31695;DHT22;18289;51.330;4.946;2022-08-19T14:51:59;27.10;99.90
31695;DHT22;18289;51.330;4.946;2022-08-19T14:54:25;27.00;99.90
31695;DHT22;18289;51.330;4.946;2022-08-19T14:56:51;27.20;99.90
31695;DHT22;18289;51.330;4.946;2022-08-19T14:59:17;27.20;99.90
31695;DHT22;18289;51.330;4.946;2022-08-19T15:01:43;27.20;99.90
31695;DHT22;18289;51.330;4.946;2022-08-19T15:04:09;27.60;99.90
31695;DHT22;18289;51.330;4.946;2022-08-19T15:06:35;28.10;99.90
31695;DHT22;18289;51.330;4.946;2022-08-19T15:09:01;29.80;99.90
31695;DHT22;18289;51.330;4.946;2022-08-19T15:11:28;29.90;99.90
31695;DHT22;18289;51.330;4.946;2022-08-19T15:13:55;29.90;99.90
31695;DHT22;18289;51.330;4.946;2022-08-19T15:16:22;29.80;99.90
31695;DHT22;18289;51.330;4.946;2022-08-19T15:18:52;29.50;99.90
31695;DHT22;18289;51.330;4.946;2022-08-19T15:21:18;29.00;99.90
31695;DHT22;18289;51.330;4.946;2022-08-19T15:23:45;29.40;99.90
31695;DHT22;18289;51.330;4.946;2022-08-19T15:26:11;29.70;99.90
31695;DHT22;18289;51.330;4.946;2022-08-19T15:28:38;29.30;99.90
31695;DHT22;18289;51.330;4.946;2022-08-19T15:31:04;28.70;99.90
31695;DHT22;18289;51.330;4.946;2022-08-19T15:33:35;28.30;99.90
31695;DHT22;18289;51.330;4.946;2022-08-19T15:36:06;28.10;99.90
31695;DHT22;18289;51.330;4.946;2022-08-19T15:38:33;27.70;99.90
31695;DHT22;18289;51.330;4.946;2022-08-19T15:41:00;27.20;99.90
31695;DHT22;18289;51.330;4.946;2022-08-19T15:43:46;26.80;99.90